createdAt,value
2022-09-06T00:01:13.121Z,50.90
2022-09-06T00:03:41.992Z,50.92
2022-09-06T00:06:13.579Z,51.23
2022-09-06T00:08:43.701Z,51.27
2022-09-06T00:11:13.929Z,51.40
2022-09-06T00:13:42.451Z,51.66
2022-09-06T00:16:13.737Z,51.69
2022-09-06T00:18:42.868Z,51.89
2022-09-06T00:21:18.711Z,51.62
2022-09-06T00:23:47.344Z,51.91
2022-09-06T00:26:17.455Z,52.08
2022-09-06T00:28:46.140Z,52.13
2022-09-06T00:31:17.222Z,52.19
2022-09-06T00:33:45.707Z,52.37
2022-09-06T00:36:14.628Z,52.38
2022-09-06T00:38:43.833Z,52.60
2022-09-06T00:41:15.033Z,52.50
2022-09-06T00:43:45.285Z,52.62
2022-09-06T00:46:19.019Z,52.77
2022-09-06T00:48:50.347Z,53.00
2022-09-06T00:51:21.920Z,52.99
2022-09-06T00:53:51.364Z,53.11
2022-09-06T00:56:19.787Z,53.08
2022-09-06T00:58:50.810Z,53.35
2022-09-06T01:01:19.298Z,53.27
2022-09-06T01:03:47.769Z,53.53
2022-09-06T01:06:27.097Z,53.50
2022-09-06T01:09:08.005Z,53.84
2022-09-06T01:12:17.916Z,53.90
2022-09-06T01:15:06.035Z,53.98
2022-09-06T01:17:51.182Z,53.93
2022-09-06T01:20:42.849Z,53.75
2022-09-06T01:23:54.038Z,53.91
2022-09-06T01:27:07.580Z,54.03
2022-09-06T01:29:44.592Z,55.13
2022-09-06T01:32:25.008Z,55.69
2022-09-06T01:35:03.803Z,55.82
2022-09-06T01:37:33.011Z,55.71
2022-09-06T01:40:01.699Z,55.64
2022-09-06T01:42:34.162Z,55.64
2022-09-06T01:45:09.639Z,55.71
2022-09-06T01:47:49.935Z,55.59
2022-09-06T01:50:55.489Z,55.60
2022-09-06T01:53:43.144Z,56.07
2022-09-06T01:56:23.420Z,56.14
2022-09-06T01:59:15.101Z,57.16
2022-09-06T02:01:57.694Z,57.36
2022-09-06T02:04:32.963Z,57.50
2022-09-06T02:07:09.027Z,57.89
2022-09-06T02:09:42.037Z,58.09
2022-09-06T02:12:14.244Z,58.46
2022-09-06T02:14:50.816Z,58.59
2022-09-06T02:17:27.021Z,58.78
2022-09-06T02:20:00.615Z,58.78
2022-09-06T02:22:34.227Z,58.86
2022-09-06T02:25:04.340Z,58.99
2022-09-06T02:27:33.645Z,59.21
2022-09-06T02:30:03.013Z,59.25
2022-09-06T02:32:39.006Z,59.33
2022-09-06T02:35:17.627Z,59.64
2022-09-06T02:37:46.539Z,60.05
2022-09-06T02:40:15.162Z,60.30
2022-09-06T02:42:43.568Z,60.42
2022-09-06T02:45:12.365Z,60.84
2022-09-06T02:47:42.112Z,60.88
2022-09-06T02:50:10.925Z,61.14
2022-09-06T02:52:39.541Z,61.25
2022-09-06T02:55:09.229Z,61.51
2022-09-06T02:57:37.615Z,61.83
2022-09-06T03:00:07.660Z,62.39
2022-09-06T03:02:36.137Z,63.91
2022-09-06T03:05:06.680Z,65.41
2022-09-06T03:07:35.091Z,67.10
2022-09-06T03:10:03.553Z,68.78
2022-09-06T03:12:32.167Z,70.35
2022-09-06T03:15:00.640Z,72.24
2022-09-06T03:17:28.987Z,73.93
2022-09-06T03:19:58.056Z,75.07
2022-09-06T03:22:27.969Z,76.29
2022-09-06T03:24:56.571Z,77.59
2022-09-06T03:27:25.044Z,78.46
2022-09-06T03:29:53.696Z,79.66
2022-09-06T03:32:22.028Z,80.55
2022-09-06T03:34:50.638Z,81.15
2022-09-06T03:37:19.699Z,81.78
2022-09-06T03:39:49.441Z,82.32
2022-09-06T03:42:18.119Z,82.72
2022-09-06T03:44:46.486Z,83.30
2022-09-06T03:47:18.854Z,83.55
2022-09-06T03:49:48.380Z,84.04
2022-09-06T03:52:17.176Z,84.29
2022-09-06T03:54:45.839Z,84.59
2022-09-06T03:57:15.614Z,85.15
2022-09-06T03:59:44.006Z,85.37
2022-09-06T04:02:12.729Z,85.82
2022-09-06T04:04:41.426Z,86.30
2022-09-06T04:07:09.780Z,86.31
2022-09-06T04:09:38.196Z,86.68
2022-09-06T04:12:06.891Z,86.62
2022-09-06T04:14:36.591Z,87.00
2022-09-06T04:17:05.234Z,86.98
2022-09-06T04:19:34.324Z,87.26
2022-09-06T04:22:02.884Z,87.30
2022-09-06T04:24:31.488Z,87.70
2022-09-06T04:27:00.688Z,87.63
2022-09-06T04:29:29.003Z,87.54
2022-09-06T04:31:58.772Z,88.01
2022-09-06T04:34:27.129Z,87.88
2022-09-06T04:36:55.472Z,87.96
2022-09-06T04:39:23.865Z,88.25
2022-09-06T04:41:52.259Z,88.42
2022-09-06T04:44:20.695Z,88.51
2022-09-06T04:46:49.340Z,88.62
2022-09-06T04:49:19.092Z,88.76
2022-09-06T04:51:47.683Z,89.10
2022-09-06T04:54:16.013Z,89.08
2022-09-06T04:56:44.616Z,88.90
2022-09-06T04:59:12.931Z,89.02
2022-09-06T05:01:41.266Z,89.29
2022-09-06T05:04:10.146Z,89.29
2022-09-06T05:06:41.292Z,89.44
2022-09-06T05:09:09.899Z,89.58
2022-09-06T05:11:38.552Z,89.78
2022-09-06T05:14:06.950Z,89.89
2022-09-06T05:16:35.347Z,89.93
2022-09-06T05:19:03.876Z,89.69
2022-09-06T05:21:32.191Z,90.01
2022-09-06T05:24:01.936Z,90.00
2022-09-06T05:26:30.300Z,90.46
2022-09-06T05:28:58.726Z,90.42
2022-09-06T05:31:29.642Z,90.35
2022-09-06T05:33:59.269Z,90.39
2022-09-06T05:36:28.883Z,90.83
2022-09-06T05:38:58.777Z,90.77
2022-09-06T05:41:28.968Z,90.82
2022-09-06T05:43:57.362Z,90.83
2022-09-06T05:46:26.594Z,90.98
2022-09-06T05:48:56.089Z,91.19
2022-09-06T05:51:24.455Z,91.11
2022-09-06T05:53:53.060Z,91.13
2022-09-06T05:56:22.321Z,91.27
2022-09-06T05:58:52.036Z,91.05
2022-09-06T06:01:22.424Z,91.03
2022-09-06T06:03:55.340Z,90.95
2022-09-06T06:06:25.044Z,91.22
2022-09-06T06:08:53.527Z,91.33
2022-09-06T06:11:22.398Z,91.28
2022-09-06T06:13:52.274Z,91.32
2022-09-06T06:16:23.994Z,91.28
2022-09-06T06:18:53.027Z,91.09
2022-09-06T06:21:23.622Z,91.36
2022-09-06T06:23:54.851Z,91.39
2022-09-06T06:26:23.924Z,91.47
2022-09-06T06:28:54.349Z,91.49
2022-09-06T06:31:23.843Z,91.53
2022-09-06T06:33:52.996Z,91.18
2022-09-06T06:36:24.336Z,91.22
2022-09-06T06:38:55.486Z,91.22
2022-09-06T06:41:26.636Z,91.01
2022-09-06T06:43:58.412Z,91.21
2022-09-06T06:46:29.395Z,91.72
2022-09-06T06:48:58.384Z,92.26
2022-09-06T06:51:29.332Z,93.22
2022-09-06T06:53:58.164Z,93.49
2022-09-06T06:56:29.141Z,92.90
2022-09-06T06:59:01.650Z,92.78
2022-09-06T07:01:32.012Z,92.43
2022-09-06T07:04:01.008Z,91.44
2022-09-06T07:09:19.988Z,89.95
2022-09-06T07:11:49.644Z,89.20
2022-09-06T07:14:20.038Z,88.27
2022-09-06T07:16:49.363Z,88.02
2022-09-06T07:22:07.647Z,87.87
2022-09-06T07:24:39.349Z,88.19
2022-09-06T07:29:57.540Z,87.97
2022-09-06T07:32:25.993Z,86.64
2022-09-06T07:34:54.640Z,86.48
2022-09-06T07:37:22.960Z,86.46
2022-09-06T07:39:51.618Z,86.51
2022-09-06T07:42:20.298Z,86.18
2022-09-06T07:44:48.746Z,86.02
2022-09-06T07:53:15.229Z,83.09
2022-09-06T07:55:44.314Z,80.56
2022-09-06T07:58:12.698Z,78.24
2022-09-06T08:00:41.956Z,78.53
2022-09-06T08:03:11.736Z,77.87
2022-09-06T08:11:17.848Z,76.39
2022-09-06T08:13:49.453Z,76.69
2022-09-06T08:16:17.998Z,76.64
2022-09-06T08:18:52.868Z,76.57
2022-09-06T08:21:23.562Z,74.63
2022-09-06T08:23:54.458Z,73.16
2022-09-06T08:26:24.673Z,72.34
2022-09-06T08:28:56.169Z,72.37
2022-09-06T08:31:24.943Z,70.06
2022-09-06T08:33:55.548Z,69.23
2022-09-06T08:36:27.141Z,67.67
2022-09-06T08:38:55.790Z,66.93
2022-09-06T08:41:28.840Z,67.08
2022-09-06T08:46:57.216Z,66.71
2022-09-06T08:49:30.740Z,65.36
2022-09-06T08:52:45.287Z,65.57
2022-09-06T08:55:31.461Z,65.49
2022-09-06T08:58:22.065Z,64.83
2022-09-06T09:00:58.393Z,63.58
2022-09-06T09:03:33.405Z,62.55
2022-09-06T09:06:05.456Z,61.03
2022-09-06T09:08:43.026Z,61.27
2022-09-06T09:11:18.307Z,60.47
2022-09-06T09:13:56.104Z,59.74
2022-09-06T09:16:25.118Z,57.71
2022-09-06T09:18:56.798Z,57.33
2022-09-06T09:21:30.789Z,56.77
2022-09-06T09:24:03.972Z,55.65
2022-09-06T09:26:41.645Z,55.08
2022-09-06T09:29:12.873Z,53.86
2022-09-06T09:31:43.914Z,53.08
2022-09-06T09:34:15.493Z,52.38
2022-09-06T09:39:39.706Z,52.49
2022-09-06T09:42:10.023Z,51.13
2022-09-06T09:44:44.241Z,51.31
2022-09-06T09:47:28.376Z,50.57
2022-09-06T09:49:56.809Z,48.95
2022-09-06T09:52:29.392Z,49.33
2022-09-06T09:55:01.708Z,48.25
2022-09-06T09:57:33.225Z,48.13
2022-09-06T10:00:02.320Z,47.80
2022-09-06T10:02:35.701Z,47.28
2022-09-06T10:05:09.304Z,46.87
2022-09-06T10:07:45.832Z,46.90
2022-09-06T10:10:17.503Z,45.94
2022-09-06T10:12:45.793Z,45.29
2022-09-06T10:15:35.036Z,45.40
2022-09-06T10:18:03.696Z,44.60
2022-09-06T10:20:45.085Z,44.60
2022-09-06T10:26:20.070Z,43.33
2022-09-06T10:28:48.631Z,42.54
2022-09-06T10:31:54.345Z,40.45
2022-09-06T10:34:58.133Z,42.40
2022-09-06T10:37:57.154Z,42.08
2022-09-06T10:40:34.835Z,41.58
2022-09-06T10:43:08.884Z,40.40
2022-09-06T10:45:47.776Z,40.29
2022-09-06T10:48:25.039Z,40.04
2022-09-06T10:50:57.129Z,38.81
2022-09-06T10:53:44.585Z,39.54
2022-09-06T10:56:21.813Z,38.74
2022-09-06T11:02:02.257Z,38.58
2022-09-06T11:07:31.741Z,37.66
2022-09-06T11:10:07.801Z,37.36
2022-09-06T11:12:45.001Z,36.93
2022-09-06T11:15:16.405Z,36.75
2022-09-06T11:17:52.272Z,36.25
2022-09-06T11:20:32.125Z,35.82
2022-09-06T11:23:34.402Z,36.51
2022-09-06T11:26:31.900Z,35.04
2022-09-06T11:29:07.219Z,35.17
2022-09-06T11:34:41.169Z,34.92
2022-09-06T11:37:24.679Z,34.71
2022-09-06T11:40:29.481Z,34.54
2022-09-06T11:43:18.836Z,33.98
2022-09-06T11:45:51.559Z,34.13
2022-09-06T11:49:02.529Z,34.34
2022-09-06T11:51:38.243Z,34.00
2022-09-06T11:54:43.909Z,33.68
2022-09-06T11:57:17.846Z,33.03
2022-09-06T12:00:00.437Z,33.31
2022-09-06T12:02:38.760Z,33.14
2022-09-06T12:05:27.820Z,32.53
2022-09-06T12:08:42.526Z,32.08
2022-09-06T12:11:35.225Z,32.13
2022-09-06T12:14:06.562Z,31.40
2022-09-06T12:17:25.798Z,32.06
2022-09-06T12:20:04.195Z,31.64
2022-09-06T12:23:03.276Z,32.19
2022-09-06T12:25:57.527Z,30.94
2022-09-06T12:28:42.419Z,31.76
2022-09-06T12:31:41.345Z,31.63
2022-09-06T12:34:20.407Z,31.71
2022-09-06T12:36:56.308Z,31.23
2022-09-06T12:39:25.591Z,31.16
2022-09-06T12:41:58.087Z,31.44
2022-09-06T12:44:34.588Z,31.16
2022-09-06T12:47:18.648Z,31.05
2022-09-06T12:49:47.034Z,30.71
2022-09-06T12:52:20.743Z,30.56
2022-09-06T12:54:51.343Z,30.31
2022-09-06T12:57:23.024Z,29.85
2022-09-06T12:59:54.770Z,29.74
2022-09-06T13:02:32.741Z,29.68
2022-09-06T13:05:06.461Z,29.56
2022-09-06T13:07:40.645Z,29.11
2022-09-06T13:10:09.439Z,29.43
2022-09-06T13:12:41.492Z,29.00
2022-09-06T13:15:15.731Z,28.67
2022-09-06T13:17:43.847Z,28.69
2022-09-06T13:20:16.077Z,28.29
2022-09-06T13:22:49.239Z,27.88
2022-09-06T13:25:26.081Z,28.41
2022-09-06T13:27:57.968Z,28.35
2022-09-06T13:30:37.245Z,29.15
2022-09-06T13:33:08.308Z,28.90
2022-09-06T13:35:39.429Z,29.10
2022-09-06T13:38:34.546Z,29.17
2022-09-06T13:41:14.653Z,28.80
2022-09-06T13:43:47.977Z,28.56
2022-09-06T13:46:16.298Z,28.47
2022-09-06T13:48:45.185Z,28.26
2022-09-06T13:51:13.915Z,28.39
2022-09-06T13:53:43.682Z,28.54
2022-09-06T13:56:12.223Z,28.65
2022-09-06T13:58:40.444Z,28.63
2022-09-06T14:01:10.702Z,29.00
2022-09-06T14:03:42.102Z,29.18
2022-09-06T14:06:11.362Z,29.04
2022-09-06T14:09:05.365Z,28.76
2022-09-06T14:11:30.101Z,29.22
2022-09-06T14:13:58.971Z,30.09
2022-09-06T14:16:27.828Z,31.44
2022-09-06T14:18:56.323Z,30.84
2022-09-06T14:21:25.275Z,30.83
2022-09-06T14:23:54.211Z,30.47
2022-09-06T14:26:24.049Z,30.27
2022-09-06T14:28:53.675Z,30.15
2022-09-06T14:31:26.112Z,29.92
2022-09-06T14:33:55.640Z,29.84
2022-09-06T14:36:27.237Z,30.01
2022-09-06T14:38:57.205Z,29.70
2022-09-06T14:41:26.106Z,29.55
2022-09-06T14:43:58.690Z,29.48
2022-09-06T14:46:29.073Z,29.78
2022-09-06T14:48:59.871Z,29.56
2022-09-06T14:51:28.788Z,29.52
2022-09-06T14:54:00.037Z,29.31
2022-09-06T14:56:28.663Z,29.14
2022-09-06T14:58:59.938Z,28.78
2022-09-06T15:01:37.088Z,28.65
2022-09-06T15:04:09.708Z,28.64
2022-09-06T15:06:41.090Z,28.03
2022-09-06T15:09:11.404Z,27.66
2022-09-06T15:11:43.713Z,27.20
2022-09-06T15:14:20.857Z,27.18
2022-09-06T15:16:55.999Z,26.91
2022-09-06T15:19:26.571Z,26.61
2022-09-06T15:21:55.386Z,26.26
2022-09-06T15:24:23.980Z,26.32
2022-09-06T15:26:52.602Z,26.48
2022-09-06T15:29:22.593Z,26.44
2022-09-06T15:31:51.806Z,27.16
2022-09-06T15:34:21.733Z,27.40
2022-09-06T15:36:52.808Z,28.17
2022-09-06T15:39:21.369Z,28.88
2022-09-06T15:41:51.793Z,29.25
2022-09-06T15:44:22.315Z,29.72
2022-09-06T15:46:53.914Z,30.06
2022-09-06T15:49:28.058Z,30.70
2022-09-06T15:51:57.328Z,31.36
2022-09-06T15:54:46.185Z,31.68
2022-09-06T15:57:16.297Z,32.36
2022-09-06T15:59:46.518Z,32.60
2022-09-06T16:02:15.686Z,32.86
2022-09-06T16:04:44.101Z,32.71
2022-09-06T16:07:12.681Z,32.18
2022-09-06T16:09:41.355Z,31.98
2022-09-06T16:12:10.816Z,31.61
2022-09-06T16:14:39.295Z,31.99
2022-09-06T16:17:09.150Z,32.07
2022-09-06T16:19:37.590Z,33.10
2022-09-06T16:22:06.037Z,32.99
2022-09-06T16:24:34.770Z,33.46
2022-09-06T16:27:03.311Z,33.72
2022-09-06T16:29:31.847Z,34.48
2022-09-06T16:32:00.592Z,34.34
2022-09-06T16:34:30.429Z,34.35
2022-09-06T16:37:00.285Z,34.38
2022-09-06T16:39:28.722Z,34.77
2022-09-06T16:41:57.119Z,34.92
2022-09-06T16:44:26.111Z,35.38
2022-09-06T16:46:56.015Z,35.58
2022-09-06T16:49:24.947Z,35.58
2022-09-06T16:51:54.756Z,35.86
2022-09-06T16:54:23.263Z,36.25
2022-09-06T16:56:51.923Z,36.31
2022-09-06T16:59:21.678Z,36.59
2022-09-06T17:01:51.412Z,36.95
2022-09-06T17:04:20.357Z,36.83
2022-09-06T17:06:48.955Z,37.04
2022-09-06T17:09:20.479Z,37.25
2022-09-06T17:11:49.967Z,37.47
2022-09-06T17:14:19.127Z,37.40
2022-09-06T17:17:06.841Z,37.64
2022-09-06T17:19:41.189Z,37.68
2022-09-06T17:22:11.108Z,37.91
2022-09-06T17:24:41.774Z,37.78
2022-09-06T17:27:10.840Z,38.14
2022-09-06T17:29:40.059Z,38.49
2022-09-06T17:32:10.156Z,38.69
2022-09-06T17:34:39.432Z,38.94
2022-09-06T17:37:08.193Z,39.22
2022-09-06T17:39:36.887Z,39.49
2022-09-06T17:42:07.597Z,39.33
2022-09-06T17:44:36.244Z,39.80
2022-09-06T17:47:13.775Z,40.11
2022-09-06T17:49:43.239Z,40.58
2022-09-06T17:52:12.528Z,40.80
2022-09-06T17:54:40.998Z,40.92
2022-09-06T17:57:10.828Z,41.24
2022-09-06T17:59:39.472Z,41.60
2022-09-06T18:02:08.384Z,41.90
2022-09-06T18:04:37.020Z,42.50
2022-09-06T18:07:05.524Z,42.83
2022-09-06T18:09:34.214Z,43.21
2022-09-06T18:12:02.759Z,43.89
2022-09-06T18:14:32.596Z,44.04
2022-09-06T18:17:01.127Z,44.11
2022-09-06T18:19:29.981Z,44.75
2022-09-06T18:21:58.380Z,45.04
2022-09-06T18:24:27.101Z,45.25
2022-09-06T18:26:55.629Z,45.57
2022-09-06T18:29:24.314Z,45.59
2022-09-06T18:31:54.515Z,45.69
2022-09-06T18:34:23.099Z,46.23
2022-09-06T18:36:51.540Z,46.51
2022-09-06T18:39:20.373Z,46.06
2022-09-06T18:42:01.373Z,46.35
2022-09-06T18:44:32.358Z,46.71
2022-09-06T18:47:05.740Z,46.45
2022-09-06T18:49:35.337Z,46.90
2022-09-06T18:52:06.001Z,46.64
2022-09-06T18:54:35.818Z,46.65
2022-09-06T18:57:04.427Z,47.06
2022-09-06T18:59:32.959Z,47.26
2022-09-06T19:02:02.830Z,47.35
2022-09-06T19:04:31.526Z,47.43
2022-09-06T19:07:03.845Z,47.11
2022-09-06T19:09:32.576Z,47.39
2022-09-06T19:12:00.960Z,47.88
2022-09-06T19:14:29.507Z,47.97
2022-09-06T19:16:58.503Z,47.82
2022-09-06T19:19:28.582Z,47.77
2022-09-06T19:21:57.250Z,47.95
2022-09-06T19:24:26.000Z,48.26
2022-09-06T19:26:55.192Z,48.22
2022-09-06T19:29:23.805Z,48.60
2022-09-06T19:31:53.011Z,48.46
2022-09-06T19:34:21.980Z,48.42
2022-09-06T19:36:55.118Z,48.62
2022-09-06T19:39:31.119Z,48.77
2022-09-06T19:42:02.392Z,48.76
2022-09-06T19:44:30.799Z,48.58
2022-09-06T19:46:59.930Z,48.56
2022-09-06T19:49:30.698Z,48.95
2022-09-06T19:52:00.468Z,48.93
2022-09-06T19:54:28.932Z,49.27
2022-09-06T19:56:57.751Z,49.44
2022-09-06T19:59:26.481Z,49.47
2022-09-06T20:01:54.939Z,49.52
2022-09-06T20:04:23.676Z,50.03
2022-09-06T20:06:52.047Z,49.86
2022-09-06T20:09:22.036Z,50.22
2022-09-06T20:11:50.609Z,50.02
2022-09-06T20:14:19.018Z,50.31
2022-09-06T20:16:47.449Z,50.43
2022-09-06T20:19:16.388Z,50.62
2022-09-06T20:21:45.276Z,50.67
2022-09-06T20:24:13.714Z,51.10
2022-09-06T20:26:43.705Z,50.79
2022-09-06T20:29:12.143Z,51.08
2022-09-06T20:31:40.922Z,51.12
2022-09-06T20:34:09.396Z,51.22
2022-09-06T20:36:37.835Z,51.34
2022-09-06T20:39:06.841Z,51.10
2022-09-06T20:41:35.563Z,51.33
2022-09-06T20:44:05.529Z,51.47
2022-09-06T20:46:36.003Z,51.53
2022-09-06T20:49:06.602Z,51.48
2022-09-06T20:51:38.660Z,51.68
2022-09-06T20:54:07.667Z,52.06
2022-09-06T20:56:39.376Z,51.84
2022-09-06T20:59:11.016Z,52.08
2022-09-06T21:01:44.186Z,52.02
2022-09-06T21:04:15.213Z,52.58
2022-09-06T21:06:45.811Z,52.52
2022-09-06T21:09:15.678Z,52.64
2022-09-06T21:11:45.185Z,53.01
2022-09-06T21:14:15.084Z,53.18
2022-09-06T21:16:43.574Z,53.47
2022-09-06T21:19:13.488Z,53.49
2022-09-06T21:21:42.274Z,53.63
2022-09-06T21:24:11.842Z,53.53
2022-09-06T21:26:40.901Z,53.91
2022-09-06T21:29:09.482Z,54.25
2022-09-06T21:31:39.375Z,54.33
2022-09-06T21:34:15.625Z,54.38
2022-09-06T21:36:45.390Z,54.58
2022-09-06T21:39:14.254Z,54.63
2022-09-06T21:41:44.716Z,54.79
2022-09-06T21:44:13.321Z,55.06
2022-09-06T21:46:43.800Z,55.47
2022-09-06T21:49:14.691Z,55.63
2022-09-06T21:51:43.934Z,56.10
2022-09-06T21:54:12.616Z,56.11
2022-09-06T21:56:41.846Z,56.26
2022-09-06T21:59:11.054Z,56.62
2022-09-06T22:01:45.082Z,56.73
2022-09-06T22:04:14.761Z,56.84
2022-09-06T22:06:43.260Z,57.10
2022-09-06T22:09:13.228Z,57.42
2022-09-06T22:11:43.751Z,57.51
2022-09-06T22:14:14.599Z,57.40
2022-09-06T22:16:44.836Z,57.91
2022-09-06T22:19:13.635Z,58.16
2022-09-06T22:21:42.065Z,58.46
2022-09-06T22:24:14.203Z,58.57
2022-09-06T22:26:43.036Z,58.66
2022-09-06T22:29:15.025Z,58.75
2022-09-06T22:31:46.077Z,58.68
2022-09-06T22:34:14.620Z,58.65
2022-09-06T22:36:43.315Z,58.72
2022-09-06T22:39:11.780Z,58.67
2022-09-06T22:41:40.604Z,58.69
2022-09-06T22:44:09.158Z,58.88
2022-09-06T22:46:38.270Z,58.73
2022-09-06T22:49:08.385Z,58.79
2022-09-06T22:51:37.050Z,58.81
2022-09-06T22:54:06.283Z,58.93
2022-09-06T22:56:35.891Z,59.25
2022-09-06T22:59:04.897Z,59.31
2022-09-06T23:01:38.913Z,59.07
2022-09-06T23:04:10.037Z,59.11
2022-09-06T23:06:38.769Z,59.00
2022-09-06T23:09:07.492Z,59.07
2022-09-06T23:11:36.245Z,59.11
2022-09-06T23:14:05.030Z,59.18
2022-09-06T23:16:33.751Z,59.17
2022-09-06T23:19:02.474Z,59.27
2022-09-06T23:21:32.409Z,59.43
2022-09-06T23:24:00.816Z,59.31
2022-09-06T23:26:31.992Z,59.25
2022-09-06T23:29:00.716Z,59.50
2022-09-06T23:31:32.642Z,59.40
2022-09-06T23:34:02.717Z,59.60
2022-09-06T23:36:33.210Z,59.70
2022-09-06T23:39:02.535Z,59.89
2022-09-06T23:41:31.365Z,59.85
2022-09-06T23:44:00.445Z,60.07
2022-09-06T23:46:29.085Z,60.09
2022-09-06T23:48:57.701Z,59.91
2022-09-06T23:51:26.447Z,60.04
2022-09-06T23:53:56.343Z,60.16
2022-09-06T23:56:24.747Z,60.15
2022-09-06T23:58:53.198Z,60.05
